createdAt,value
2023-03-12T00:01:34.580Z,9.51
2023-03-12T00:04:02.839Z,9.53
2023-03-12T00:06:31.328Z,9.57
2023-03-12T00:09:02.313Z,9.59
2023-03-12T00:11:31.456Z,9.58
2023-03-12T00:14:02.182Z,9.61
2023-03-12T00:16:30.465Z,9.58
2023-03-12T00:18:58.458Z,9.44
2023-03-12T00:21:26.662Z,9.36
2023-03-12T00:23:54.638Z,9.24
2023-03-12T00:26:22.736Z,9.14
2023-03-12T00:38:14.113Z,8.74
2023-03-12T00:40:42.140Z,8.73
2023-03-12T00:43:10.110Z,8.71
2023-03-12T00:45:38.108Z,8.65
2023-03-12T00:48:06.697Z,8.58
2023-03-12T00:50:34.879Z,8.48
2023-03-12T00:53:02.904Z,8.40
2023-03-12T00:55:30.858Z,8.33
2023-03-12T00:57:58.886Z,8.27
2023-03-12T01:00:27.430Z,8.24
2023-03-12T01:02:55.684Z,8.22
2023-03-12T01:05:25.441Z,8.23
2023-03-12T01:07:54.798Z,8.25
2023-03-12T01:10:23.267Z,8.27
2023-03-12T01:12:51.820Z,8.20
2023-03-12T01:15:19.860Z,8.14
2023-03-12T01:17:48.009Z,8.08
2023-03-12T01:20:16.458Z,8.00
2023-03-12T01:22:44.816Z,7.96
2023-03-12T01:25:13.088Z,7.97
2023-03-12T01:27:41.186Z,7.97
2023-03-12T01:30:10.370Z,7.96
2023-03-12T01:32:39.532Z,7.95
2023-03-12T01:35:08.500Z,7.88
2023-03-12T01:37:36.672Z,7.83
2023-03-12T01:40:05.162Z,7.80
2023-03-12T01:42:33.900Z,7.78
2023-03-12T01:45:03.095Z,7.77
2023-03-12T01:47:32.730Z,7.80
2023-03-12T01:50:03.557Z,7.80
2023-03-12T01:52:34.348Z,7.81
2023-03-12T01:55:03.940Z,7.78
2023-03-12T01:57:52.720Z,7.72
2023-03-12T02:00:24.148Z,7.67
2023-03-12T02:02:56.358Z,7.55
2023-03-12T02:05:34.301Z,7.37
2023-03-12T02:08:02.627Z,7.22
2023-03-12T02:10:32.244Z,7.04
2023-03-12T02:13:00.523Z,6.88
2023-03-12T02:15:29.095Z,6.76
2023-03-12T02:17:57.924Z,6.69
2023-03-12T02:20:57.012Z,6.64
2023-03-12T02:23:43.729Z,6.57
2023-03-12T02:26:12.762Z,6.49
2023-03-12T02:28:44.286Z,6.42
2023-03-12T02:31:18.461Z,6.39
2023-03-12T02:33:46.740Z,6.37
2023-03-12T02:40:45.337Z,6.33
2023-03-12T02:43:13.831Z,6.30
2023-03-12T02:45:43.908Z,6.24
2023-03-12T02:48:12.323Z,6.19
2023-03-12T02:50:43.266Z,6.15
2023-03-12T02:53:11.470Z,6.16
2023-03-12T02:55:43.652Z,6.23
2023-03-12T02:58:12.211Z,6.31
2023-03-12T03:00:40.421Z,6.33
2023-03-12T03:03:08.800Z,6.34
2023-03-12T03:05:37.347Z,6.32
2023-03-12T03:08:10.621Z,6.32
2023-03-12T03:10:38.674Z,6.42
2023-03-12T03:13:07.975Z,6.49
2023-03-12T03:15:36.815Z,6.50
2023-03-12T03:18:07.136Z,6.52
2023-03-12T03:20:36.001Z,6.60
2023-03-12T03:23:04.633Z,6.68
2023-03-12T03:25:34.253Z,6.74
2023-03-12T03:28:04.343Z,6.73
2023-03-12T03:30:33.548Z,6.66
2023-03-12T03:33:02.296Z,6.68
2023-03-12T03:35:34.491Z,6.67
2023-03-12T03:38:02.811Z,6.59
2023-03-12T03:40:30.911Z,6.52
2023-03-12T03:42:59.947Z,6.45
2023-03-12T03:45:28.208Z,6.41
2023-03-12T03:47:56.304Z,6.43
2023-03-12T03:50:24.454Z,6.43
2023-03-12T03:52:55.156Z,6.43
2023-03-12T03:55:24.505Z,6.42
2023-03-12T03:57:52.528Z,6.40
2023-03-12T04:00:22.032Z,6.37
2023-03-12T04:02:51.029Z,6.27
2023-03-12T04:05:20.895Z,6.16
2023-03-12T04:07:53.107Z,6.02
2023-03-12T04:10:23.644Z,5.86
2023-03-12T04:12:52.906Z,5.68
2023-03-12T04:15:23.513Z,5.47
2023-03-12T04:17:52.248Z,5.27
2023-03-12T04:20:21.041Z,5.08
2023-03-12T04:22:50.139Z,4.89
2023-03-12T04:25:19.103Z,4.66
2023-03-12T04:27:47.598Z,4.51
2023-03-12T04:30:16.155Z,4.44
2023-03-12T04:32:45.701Z,4.37
2023-03-12T04:35:19.912Z,4.30
2023-03-12T04:37:48.584Z,4.27
2023-03-12T04:40:19.098Z,4.24
2023-03-12T04:42:48.009Z,4.21
2023-03-12T04:45:16.869Z,4.20
2023-03-12T04:47:51.149Z,4.14
2023-03-12T04:50:19.460Z,4.11
2023-03-12T04:52:47.865Z,4.10
2023-03-12T04:55:16.370Z,4.05
2023-03-12T04:57:44.394Z,3.97
2023-03-12T05:00:13.753Z,3.97
2023-03-12T05:02:43.318Z,3.98
2023-03-12T05:05:11.835Z,3.89
2023-03-12T05:08:00.793Z,3.72
2023-03-12T05:10:31.608Z,3.62
2023-03-12T05:13:00.884Z,3.49
2023-03-12T05:15:29.218Z,3.32
2023-03-12T05:17:58.917Z,3.19
2023-03-12T05:20:27.062Z,3.08
2023-03-12T05:22:55.465Z,3.02
2023-03-12T05:25:26.338Z,3.03
2023-03-12T05:27:56.208Z,3.14
2023-03-12T05:30:25.826Z,3.18
2023-03-12T05:32:54.063Z,3.14
2023-03-12T05:35:22.205Z,3.11
2023-03-12T05:37:54.469Z,3.14
2023-03-12T05:40:23.126Z,3.11
2023-03-12T05:42:51.804Z,3.07
2023-03-12T05:45:20.054Z,3.08
2023-03-12T05:47:49.719Z,3.06
2023-03-12T05:50:19.368Z,3.01
2023-03-12T05:52:48.191Z,2.99
2023-03-12T05:55:17.808Z,3.06
2023-03-12T05:57:47.608Z,3.09
2023-03-12T06:00:16.806Z,3.10
2023-03-12T06:02:50.725Z,3.14
2023-03-12T06:05:19.094Z,3.17
2023-03-12T06:07:52.338Z,3.24
2023-03-12T06:10:20.931Z,3.29
2023-03-12T06:12:48.982Z,3.29
2023-03-12T06:15:20.179Z,3.30
2023-03-12T06:17:50.330Z,3.31
2023-03-12T06:20:19.190Z,3.32
2023-03-12T06:22:47.291Z,3.29
2023-03-12T06:25:16.085Z,3.24
2023-03-12T06:27:44.568Z,3.16
2023-03-12T06:30:13.522Z,3.13
2023-03-12T06:32:41.609Z,3.11
2023-03-12T06:35:10.127Z,3.00
2023-03-12T06:37:38.172Z,2.85
2023-03-12T06:40:10.114Z,2.66
2023-03-12T06:42:40.367Z,2.56
2023-03-12T06:45:09.053Z,2.53
2023-03-12T06:47:37.894Z,2.42
2023-03-12T06:50:06.263Z,2.29
2023-03-12T06:52:37.793Z,2.11
2023-03-12T06:55:06.545Z,1.98
2023-03-12T06:57:34.660Z,1.92
2023-03-12T07:00:04.907Z,1.93
2023-03-12T07:02:33.610Z,2.00
2023-03-12T07:05:06.988Z,2.09
2023-03-12T07:07:35.525Z,2.13
2023-03-12T07:10:06.607Z,2.20
2023-03-12T07:12:35.002Z,2.24
2023-03-12T07:15:03.217Z,2.16
2023-03-12T07:17:31.877Z,2.03
2023-03-12T07:20:00.134Z,1.93
2023-03-12T07:22:28.388Z,1.90
2023-03-12T07:24:56.601Z,1.92
2023-03-12T07:27:24.862Z,1.93
2023-03-12T07:29:52.899Z,1.93
2023-03-12T07:32:21.068Z,1.96
2023-03-12T07:34:49.217Z,1.98
2023-03-12T07:37:20.238Z,2.02
2023-03-12T07:39:52.469Z,2.00
2023-03-12T07:42:23.794Z,2.03
2023-03-12T07:44:51.992Z,1.94
2023-03-12T07:47:24.206Z,1.80
2023-03-12T07:49:54.248Z,1.70
2023-03-12T07:52:23.733Z,1.72
2023-03-12T07:54:53.010Z,1.75
2023-03-12T07:57:21.650Z,1.72
2023-03-12T07:59:50.078Z,1.70
2023-03-12T08:02:18.739Z,1.70
2023-03-12T08:04:47.109Z,1.71
2023-03-12T08:07:15.344Z,1.71
2023-03-12T08:09:44.250Z,1.73
2023-03-12T08:12:15.805Z,1.74
2023-03-12T08:14:44.070Z,1.70
2023-03-12T08:17:13.022Z,1.61
2023-03-12T08:19:42.598Z,1.54
2023-03-12T08:22:10.842Z,1.56
2023-03-12T08:24:38.824Z,1.59
2023-03-12T08:27:08.172Z,1.59
2023-03-12T08:29:36.461Z,1.57
2023-03-12T08:32:05.855Z,1.58
2023-03-12T08:34:36.929Z,1.58
2023-03-12T08:37:05.965Z,1.57
2023-03-12T08:39:34.297Z,1.55
2023-03-12T08:42:02.468Z,1.51
2023-03-12T08:44:30.759Z,1.47
2023-03-12T08:46:58.889Z,1.46
2023-03-12T08:49:27.039Z,1.46
2023-03-12T08:51:55.342Z,1.49
2023-03-12T08:54:23.407Z,1.54
2023-03-12T08:56:52.729Z,1.63
2023-03-12T08:59:23.493Z,1.67
2023-03-12T09:01:51.886Z,1.67
2023-03-12T09:04:20.068Z,1.67
2023-03-12T09:06:48.493Z,1.66
2023-03-12T09:09:16.550Z,1.63
2023-03-12T09:11:47.429Z,1.61
2023-03-12T09:17:09.235Z,1.63
2023-03-12T09:19:37.405Z,1.63
2023-03-12T09:22:05.580Z,1.64
2023-03-12T09:24:35.404Z,1.69
2023-03-12T09:27:04.600Z,1.73
2023-03-12T09:29:34.868Z,1.73
2023-03-12T09:32:05.807Z,1.78
2023-03-12T09:34:35.057Z,1.87
2023-03-12T09:37:03.082Z,1.94
2023-03-12T09:39:32.210Z,1.97
2023-03-12T09:42:00.259Z,2.01
2023-03-12T09:44:41.452Z,2.04
2023-03-12T09:47:26.231Z,2.07
2023-03-12T09:49:57.200Z,2.10
2023-03-12T09:52:43.668Z,2.08
2023-03-12T09:55:16.901Z,2.09
2023-03-12T09:57:45.033Z,2.07
2023-03-12T10:00:17.246Z,2.01
2023-03-12T10:03:10.320Z,1.98
2023-03-12T10:06:24.685Z,1.95
2023-03-12T10:08:56.676Z,1.87
2023-03-12T10:11:32.332Z,1.85
2023-03-12T10:14:05.038Z,1.83
2023-03-12T10:16:43.489Z,1.78
2023-03-12T10:19:29.514Z,1.80
2023-03-12T10:22:00.665Z,1.88
2023-03-12T10:24:55.593Z,1.94
2023-03-12T10:27:25.888Z,1.96
2023-03-12T10:29:54.554Z,1.93
2023-03-12T10:32:37.628Z,1.89
2023-03-12T10:35:17.248Z,1.87
2023-03-12T10:38:04.996Z,1.89
2023-03-12T10:40:34.645Z,1.91
2023-03-12T10:43:04.602Z,1.95
2023-03-12T10:45:36.597Z,1.97
2023-03-12T10:48:11.908Z,2.00
2023-03-12T10:50:42.407Z,2.01
2023-03-12T10:53:13.466Z,1.98
2023-03-12T10:55:42.430Z,1.98
2023-03-12T10:58:22.854Z,2.00
2023-03-12T11:00:58.270Z,2.01
2023-03-12T11:03:26.329Z,2.06
2023-03-12T11:05:55.777Z,2.10
2023-03-12T11:08:31.092Z,2.12
2023-03-12T11:11:00.240Z,2.15
2023-03-12T11:13:38.093Z,2.27
2023-03-12T11:16:16.161Z,2.39
2023-03-12T11:19:05.220Z,2.46
2023-03-12T11:21:40.333Z,2.51
2023-03-12T11:24:10.986Z,2.65
2023-03-12T11:26:52.169Z,2.92
2023-03-12T11:29:40.229Z,3.26
2023-03-12T11:32:35.495Z,3.62
2023-03-12T11:35:12.450Z,3.77
2023-03-12T11:37:56.740Z,3.79
2023-03-12T11:40:28.016Z,3.74
2023-03-12T11:43:05.163Z,3.63
2023-03-12T11:45:43.889Z,3.48
2023-03-12T11:48:33.954Z,3.39
2023-03-12T11:51:08.531Z,3.33
2023-03-12T11:53:37.303Z,3.31
2023-03-12T11:56:12.456Z,3.30
2023-03-12T11:59:16.186Z,3.30
2023-03-12T12:01:50.316Z,3.31
2023-03-12T12:04:50.787Z,3.37
2023-03-12T12:07:23.181Z,3.46
2023-03-12T12:10:01.694Z,3.47
2023-03-12T12:12:36.396Z,3.48
2023-03-12T12:15:25.815Z,3.55
2023-03-12T12:18:06.244Z,3.64
2023-03-12T12:20:39.974Z,3.76
2023-03-12T12:23:20.428Z,3.85
2023-03-12T12:26:01.192Z,3.93
2023-03-12T12:29:00.301Z,3.98
2023-03-12T12:31:51.748Z,4.03
2023-03-12T12:34:59.001Z,3.99
2023-03-12T12:37:42.874Z,3.89
2023-03-12T12:40:21.376Z,3.83
2023-03-12T12:43:35.999Z,3.78
2023-03-12T12:46:09.775Z,3.72
2023-03-12T12:49:05.239Z,3.65
2023-03-12T12:51:40.518Z,3.62
2023-03-12T12:54:16.850Z,3.65
2023-03-12T12:56:51.127Z,3.72
2023-03-12T12:59:28.036Z,3.77
2023-03-12T13:01:56.293Z,3.79
2023-03-12T13:04:33.047Z,3.81
2023-03-12T13:07:12.316Z,3.85
2023-03-12T13:09:41.740Z,3.91
2023-03-12T13:12:19.437Z,3.96
2023-03-12T13:14:48.754Z,4.01
2023-03-12T13:17:36.429Z,4.05
2023-03-12T13:20:11.144Z,4.10
2023-03-12T13:23:01.392Z,4.15
2023-03-12T13:25:40.012Z,4.19
2023-03-12T13:28:32.618Z,4.24
2023-03-12T13:31:24.318Z,4.32
2023-03-12T13:33:53.616Z,4.40
2023-03-12T13:36:29.140Z,4.43
2023-03-12T13:39:08.076Z,4.44
2023-03-12T13:41:41.132Z,4.47
2023-03-12T13:44:28.065Z,4.50
2023-03-12T13:46:59.792Z,4.53
2023-03-12T13:50:14.216Z,4.56
2023-03-12T13:52:51.870Z,4.53
2023-03-12T13:55:25.269Z,4.50
2023-03-12T13:58:02.138Z,4.49
2023-03-12T14:00:38.499Z,4.50
2023-03-12T14:03:12.565Z,4.46
2023-03-12T14:06:04.535Z,4.43
2023-03-12T14:08:49.135Z,4.45
2023-03-12T14:11:21.222Z,4.50
2023-03-12T14:14:15.449Z,4.56
2023-03-12T14:16:46.258Z,4.64
2023-03-12T14:19:14.623Z,4.68
2023-03-12T14:21:46.547Z,4.71
2023-03-12T14:24:19.428Z,4.70
2023-03-12T14:26:47.421Z,4.70
2023-03-12T14:29:38.158Z,4.72
2023-03-12T14:32:11.469Z,4.74
2023-03-12T14:34:45.486Z,4.75
2023-03-12T14:37:19.035Z,4.72
2023-03-12T14:39:55.683Z,4.67
2023-03-12T14:43:14.454Z,4.61
2023-03-12T14:45:44.632Z,4.49
2023-03-12T14:48:13.011Z,4.41
2023-03-12T14:50:41.602Z,4.38
2023-03-12T14:53:24.726Z,4.40
2023-03-12T14:56:25.866Z,4.38
2023-03-12T14:58:54.141Z,4.34
2023-03-12T15:01:33.350Z,4.32
2023-03-12T15:04:03.914Z,4.34
2023-03-12T15:06:36.656Z,4.34
2023-03-12T15:09:06.993Z,4.33
2023-03-12T15:11:38.784Z,4.31
2023-03-12T15:14:08.302Z,4.25
2023-03-12T15:16:38.418Z,4.20
2023-03-12T15:19:06.494Z,4.27
2023-03-12T15:21:35.036Z,4.33
2023-03-12T15:24:04.036Z,4.38
2023-03-12T15:26:35.674Z,4.42
2023-03-12T15:29:16.517Z,4.48
2023-03-12T15:31:48.934Z,4.49
2023-03-12T15:34:34.343Z,4.51
2023-03-12T15:37:23.889Z,4.58
2023-03-12T15:39:52.292Z,4.62
2023-03-12T15:42:23.693Z,4.62
2023-03-12T15:44:56.989Z,4.61
2023-03-12T15:47:29.031Z,4.65
2023-03-12T15:50:11.296Z,4.74
2023-03-12T15:52:39.454Z,4.85
2023-03-12T15:55:22.689Z,4.95
2023-03-12T15:57:52.167Z,5.03
2023-03-12T16:00:28.336Z,5.09
2023-03-12T16:03:01.014Z,5.13
2023-03-12T16:05:35.617Z,5.09
2023-03-12T16:08:23.551Z,4.98
2023-03-12T16:10:51.741Z,4.79
2023-03-12T16:13:20.924Z,4.64
2023-03-12T16:15:52.412Z,4.53
2023-03-12T16:18:22.033Z,4.46
2023-03-12T16:20:51.403Z,4.43
2023-03-12T16:23:21.640Z,4.43
2023-03-12T16:25:51.764Z,4.41
2023-03-12T16:28:20.354Z,4.43
2023-03-12T16:30:50.054Z,4.47
2023-03-12T16:33:19.873Z,4.53
2023-03-12T16:35:48.166Z,4.57
2023-03-12T16:38:16.629Z,4.65
2023-03-12T16:40:49.071Z,4.72
2023-03-12T16:52:39.757Z,4.30
2023-03-12T16:55:08.237Z,4.11
2023-03-12T16:57:37.620Z,3.98
2023-03-12T17:00:08.600Z,3.85
2023-03-12T17:02:36.914Z,3.73
2023-03-12T17:05:05.137Z,3.62
2023-03-12T17:07:33.328Z,3.57
2023-03-12T17:10:02.011Z,3.53
2023-03-12T17:12:36.414Z,3.50
2023-03-12T17:15:08.378Z,3.45
2023-03-12T17:17:37.599Z,3.42
2023-03-12T17:20:10.059Z,3.39
2023-03-12T17:22:38.285Z,3.41
2023-03-12T17:25:30.248Z,3.48
2023-03-12T17:27:59.670Z,3.63
2023-03-12T17:30:30.106Z,3.74
2023-03-12T17:33:02.918Z,3.78
2023-03-12T17:35:31.179Z,3.74
2023-03-12T17:37:59.571Z,3.72
2023-03-12T17:40:28.201Z,3.72
2023-03-12T17:43:02.572Z,3.66
2023-03-12T17:45:30.700Z,3.63
2023-03-12T17:47:58.764Z,3.68
2023-03-12T17:50:26.872Z,3.77
2023-03-12T17:52:55.119Z,3.90
2023-03-12T17:55:23.164Z,4.01
2023-03-12T17:57:51.358Z,4.11
2023-03-12T18:00:23.105Z,4.19
2023-03-12T18:02:53.055Z,4.27
2023-03-12T18:05:21.438Z,4.32
2023-03-12T18:07:52.291Z,4.37
2023-03-12T18:10:20.547Z,4.42
2023-03-12T18:12:50.919Z,4.46
2023-03-12T18:15:19.813Z,4.51
2023-03-12T18:17:51.960Z,4.54
2023-03-12T18:20:37.463Z,4.57
2023-03-12T18:23:06.856Z,4.58
2023-03-12T18:25:34.838Z,4.57
2023-03-12T18:28:03.301Z,4.56
2023-03-12T18:30:31.620Z,4.56
2023-03-12T18:33:03.066Z,4.52
2023-03-12T18:35:31.690Z,4.51
2023-03-12T18:37:59.786Z,4.52
2023-03-12T18:40:29.138Z,4.49
2023-03-12T18:42:58.024Z,4.47
2023-03-12T18:45:27.112Z,4.47
2023-03-12T18:47:55.996Z,4.46
2023-03-12T18:50:25.022Z,4.35
2023-03-12T18:52:53.531Z,4.24
2023-03-12T18:55:21.538Z,4.07
2023-03-12T18:57:50.355Z,3.95
2023-03-12T19:00:19.250Z,3.93
2023-03-12T19:02:48.030Z,3.91
2023-03-12T19:05:16.660Z,3.86
2023-03-12T19:07:44.755Z,3.85
2023-03-12T19:10:13.027Z,3.85
2023-03-12T19:12:52.152Z,3.79
2023-03-12T19:15:22.170Z,3.69
2023-03-12T19:17:51.290Z,3.50
2023-03-12T19:20:19.855Z,3.28
2023-03-12T19:22:50.029Z,3.09
2023-03-12T19:25:18.781Z,2.96
2023-03-12T19:27:50.298Z,2.82
2023-03-12T19:30:19.026Z,2.66
2023-03-12T19:32:47.135Z,2.54
2023-03-12T19:35:15.341Z,2.43
2023-03-12T19:37:44.564Z,2.38
2023-03-12T19:40:13.429Z,2.34
2023-03-12T19:42:42.608Z,2.33
2023-03-12T19:45:11.232Z,2.38
2023-03-12T19:47:41.044Z,2.39
2023-03-12T19:50:10.146Z,2.40
2023-03-12T19:52:38.810Z,2.42
2023-03-12T19:55:09.763Z,2.43
2023-03-12T19:57:37.978Z,2.42
2023-03-12T20:00:09.932Z,2.39
2023-03-12T20:02:38.871Z,2.37
2023-03-12T20:05:07.490Z,2.38
2023-03-12T20:07:36.045Z,2.45
2023-03-12T20:10:10.015Z,2.50
2023-03-12T20:12:39.453Z,2.43
2023-03-12T20:15:08.849Z,2.34
2023-03-12T20:17:38.012Z,2.31
2023-03-12T20:20:08.079Z,2.28
2023-03-12T20:22:36.672Z,2.25
2023-03-12T20:25:06.824Z,2.26
2023-03-12T20:27:35.790Z,2.29
2023-03-12T20:30:04.668Z,2.32
2023-03-12T20:32:33.456Z,2.33
2023-03-12T20:35:01.547Z,2.33
2023-03-12T20:37:31.168Z,2.34
2023-03-12T20:39:59.523Z,2.40
2023-03-12T20:42:27.823Z,2.47
2023-03-12T20:44:57.062Z,2.45
2023-03-12T20:47:25.267Z,2.48
2023-03-12T20:49:53.469Z,2.55
2023-03-12T20:52:21.719Z,2.57
2023-03-12T20:54:51.169Z,2.61
2023-03-12T20:57:19.141Z,2.61
2023-03-12T20:59:47.249Z,2.60
2023-03-12T21:02:15.496Z,2.66
2023-03-12T21:04:43.903Z,2.69
2023-03-12T21:07:12.304Z,2.67
2023-03-12T21:09:43.194Z,2.63
2023-03-12T21:12:11.382Z,2.66
2023-03-12T21:14:41.666Z,2.72
2023-03-12T21:17:13.817Z,2.75
2023-03-12T21:19:46.511Z,2.75
2023-03-12T21:22:15.040Z,2.75
2023-03-12T21:24:42.997Z,2.68
2023-03-12T21:27:13.100Z,2.57
2023-03-12T21:29:42.726Z,2.49
2023-03-12T21:32:10.753Z,2.46
2023-03-12T21:34:39.115Z,2.47
2023-03-12T21:37:07.165Z,2.41
2023-03-12T21:39:36.258Z,2.33
2023-03-12T21:42:04.587Z,2.22
2023-03-12T21:44:36.516Z,2.19
2023-03-12T21:47:05.213Z,2.20
2023-03-12T21:49:34.797Z,2.16
2023-03-12T21:52:03.593Z,2.13
2023-03-12T21:54:35.159Z,2.16
2023-03-12T21:57:03.831Z,2.16
2023-03-12T21:59:33.050Z,2.15
2023-03-12T22:02:01.456Z,2.19
2023-03-12T22:04:29.837Z,2.21
2023-03-12T22:06:58.166Z,2.19
2023-03-12T22:09:27.111Z,2.16
2023-03-12T22:11:55.740Z,2.17
2023-03-12T22:14:24.161Z,2.23
2023-03-12T22:16:54.786Z,2.29
2023-03-12T22:19:24.056Z,2.27
2023-03-12T22:21:52.158Z,2.24
2023-03-12T22:24:22.036Z,2.23
2023-03-12T22:26:50.032Z,2.26
2023-03-12T22:29:18.008Z,2.31
2023-03-12T22:31:46.154Z,2.41
2023-03-12T22:34:14.950Z,2.56
2023-03-12T22:36:43.593Z,2.65
2023-03-12T22:39:11.815Z,2.70
2023-03-12T22:41:41.233Z,2.75
2023-03-12T22:44:09.514Z,2.82
2023-03-12T22:46:43.095Z,2.88
2023-03-12T22:49:11.306Z,2.93
2023-03-12T22:51:39.393Z,2.99
2023-03-12T22:54:07.429Z,3.08
2023-03-12T22:56:35.997Z,3.12
2023-03-12T22:59:04.916Z,3.07
2023-03-12T23:01:33.773Z,2.90
2023-03-12T23:04:06.462Z,2.76
2023-03-12T23:06:34.654Z,2.71
2023-03-12T23:09:03.181Z,2.73
2023-03-12T23:11:36.023Z,2.78
2023-03-12T23:14:04.321Z,2.83
2023-03-12T23:16:32.495Z,2.91
2023-03-12T23:19:00.900Z,2.98
2023-03-12T23:21:29.995Z,3.05
2023-03-12T23:24:02.335Z,3.10
2023-03-12T23:26:30.485Z,3.10
2023-03-12T23:28:59.281Z,3.04
2023-03-12T23:31:29.174Z,2.90
2023-03-12T23:33:59.242Z,2.87
2023-03-12T23:36:32.021Z,2.89
2023-03-12T23:39:00.452Z,2.95
2023-03-12T23:41:31.844Z,3.02
2023-03-12T23:44:01.600Z,3.05
2023-03-12T23:46:30.390Z,3.00
2023-03-12T23:48:59.972Z,2.91
2023-03-12T23:51:31.356Z,2.91
2023-03-12T23:54:03.821Z,2.94
2023-03-12T23:56:38.116Z,2.96
2023-03-12T23:59:07.145Z,2.96
